createdAt,value
2019-04-26T00:00:34.286Z,100182.38
2019-04-26T00:03:07.775Z,100186.66
2019-04-26T00:05:38.319Z,100186.01
2019-04-26T00:08:10.862Z,100188.77
2019-04-26T00:10:53.808Z,100195.83
2019-04-26T00:13:37.007Z,100192.56
2019-04-26T00:16:37.926Z,100197.11
2019-04-26T00:19:07.753Z,100198.64
2019-04-26T00:21:37.785Z,100200.36
2019-04-26T00:24:07.775Z,100194.80
2019-04-26T00:26:38.830Z,100193.47
2019-04-26T00:29:08.415Z,100189.20
2019-04-26T00:31:38.165Z,100192.14
2019-04-26T00:34:08.054Z,100185.02
2019-04-26T00:36:37.463Z,100190.32
2019-04-26T00:39:07.930Z,100189.10
2019-04-26T00:41:38.465Z,100193.08
2019-04-26T00:44:08.061Z,100195.42
2019-04-26T00:46:38.706Z,100196.48
2019-04-26T00:49:10.090Z,100196.38
2019-04-26T00:51:40.191Z,100190.53
2019-04-26T00:54:10.263Z,100195.96
2019-04-26T00:56:40.187Z,100198.92
2019-04-26T00:59:10.553Z,100203.59
2019-04-26T01:01:43.089Z,100206.55
2019-04-26T01:04:12.626Z,100212.28
2019-04-26T01:06:44.063Z,100226.68
2019-04-26T01:09:13.588Z,100225.56
2019-04-26T01:11:43.123Z,100227.84
2019-04-26T01:14:12.794Z,100223.31
2019-04-26T01:16:42.580Z,100221.98
2019-04-26T01:19:13.152Z,100217.08
2019-04-26T01:21:47.004Z,100213.14
2019-04-26T01:24:19.316Z,100211.66
2019-04-26T01:26:50.447Z,100215.27
2019-04-26T01:29:21.799Z,100209.23
2019-04-26T01:31:59.976Z,100206.05
2019-04-26T01:34:30.476Z,100207.88
2019-04-26T01:37:00.694Z,100204.56
2019-04-26T01:39:30.476Z,100201.48
2019-04-26T01:42:10.965Z,100197.66
2019-04-26T01:44:49.404Z,100174.55
2019-04-26T01:47:20.044Z,100174.55
2019-04-26T01:49:51.128Z,100197.03
2019-04-26T01:52:22.404Z,100197.03
2019-04-26T01:54:51.981Z,100194.22
2019-04-26T01:57:23.623Z,100198.10
2019-04-26T01:59:57.444Z,100193.10
2019-04-26T02:02:46.127Z,100160.98
2019-04-26T02:05:22.393Z,100194.47
2019-04-26T02:07:52.538Z,100182.05
2019-04-26T02:10:25.187Z,100202.51
2019-04-26T02:12:56.533Z,100181.95
2019-04-26T02:15:29.184Z,100180.27
2019-04-26T02:17:59.820Z,100195.90
2019-04-26T02:21:15.433Z,100195.90
2019-04-26T02:23:54.430Z,100200.05
2019-04-26T02:26:52.291Z,100204.69
2019-04-26T02:29:27.165Z,100206.66
2019-04-26T02:32:02.148Z,100198.80
2019-04-26T02:34:35.262Z,100177.56
2019-04-26T02:37:06.560Z,100200.06
2019-04-26T02:39:39.824Z,100200.06
2019-04-26T02:42:22.217Z,100179.03
2019-04-26T02:45:11.326Z,100177.92
2019-04-26T02:47:52.064Z,100177.92
2019-04-26T02:50:32.775Z,100180.23
2019-04-26T02:53:44.570Z,100180.23
2019-04-26T02:56:30.408Z,100193.25
2019-04-26T02:59:23.011Z,100196.66
2019-04-26T03:01:54.368Z,100190.37
2019-04-26T03:04:25.588Z,100184.39
2019-04-26T03:07:03.523Z,100190.27
2019-04-26T03:09:31.962Z,100173.70
2019-04-26T03:12:06.641Z,100185.86
2019-04-26T03:15:13.574Z,100188.25
2019-04-26T03:17:54.818Z,100191.34
2019-04-26T03:20:34.357Z,100191.34
2019-04-26T03:23:45.799Z,100190.97
2019-04-26T03:26:13.906Z,100190.40
2019-04-26T03:29:13.737Z,100188.72
2019-04-26T03:31:56.342Z,100186.11
2019-04-26T03:34:45.488Z,100181.80
2019-04-26T03:38:01.696Z,100188.22
2019-04-26T03:40:59.788Z,100191.02
2019-04-26T03:43:55.652Z,100182.34
2019-04-26T03:46:45.367Z,100179.80
2019-04-26T03:49:54.786Z,100181.88
2019-04-26T03:52:41.546Z,100181.98
2019-04-26T03:56:03.897Z,100184.38
2019-04-26T03:59:03.237Z,100179.44
2019-04-26T04:01:37.395Z,100185.21
2019-04-26T04:04:27.073Z,100180.98
2019-04-26T04:07:04.605Z,100180.98
2019-04-26T04:09:30.128Z,100184.74
2019-04-26T04:12:12.223Z,100183.63
2019-04-26T04:15:05.061Z,100184.49
2019-04-26T04:17:50.237Z,100187.25
2019-04-26T04:21:01.018Z,100187.03
2019-04-26T04:23:50.086Z,100190.41
2019-04-26T04:26:26.698Z,100188.51
2019-04-26T04:29:42.849Z,100183.16
2019-04-26T04:32:13.430Z,100184.43
2019-04-26T04:34:47.504Z,100187.38
2019-04-26T04:37:18.309Z,100187.20
2019-04-26T04:40:37.893Z,100191.33
2019-04-26T04:43:32.577Z,100194.77
2019-04-26T04:46:35.637Z,100189.47
2019-04-26T04:49:21.080Z,100190.42
2019-04-26T04:51:54.402Z,100195.28
2019-04-26T04:54:36.603Z,100201.36
2019-04-26T04:57:31.961Z,100189.26
2019-04-26T05:00:33.837Z,100189.49
2019-04-26T05:03:27.921Z,100193.47
2019-04-26T05:06:25.588Z,100189.95
2019-04-26T05:09:12.122Z,100196.47
2019-04-26T05:12:09.720Z,100195.02
2019-04-26T05:15:02.025Z,100192.62
2019-04-26T05:18:04.720Z,100194.19
2019-04-26T05:20:42.032Z,100192.98
2019-04-26T05:23:55.245Z,100202.53
2019-04-26T05:27:02.973Z,100194.91
2019-04-26T05:30:21.851Z,100196.47
2019-04-26T05:33:16.615Z,100199.13
2019-04-26T05:36:19.285Z,100197.56
2019-04-26T05:39:17.549Z,100199.98
2019-04-26T05:42:20.555Z,100196.23
2019-04-26T05:45:29.140Z,100197.20
2019-04-26T05:48:30.674Z,100197.47
2019-04-26T05:51:49.308Z,100195.45
2019-04-26T05:55:33.712Z,100196.39
2019-04-26T05:58:34.567Z,100197.45
2019-04-26T06:02:07.790Z,100191.12
2019-04-26T06:05:08.105Z,100197.36
2019-04-26T06:08:08.790Z,100192.97
2019-04-26T06:10:59.977Z,100187.25
2019-04-26T06:14:19.467Z,100185.27
2019-04-26T06:17:27.969Z,100185.59
2019-04-26T06:20:23.308Z,100187.28
2019-04-26T06:23:30.032Z,100194.52
2019-04-26T06:26:30.447Z,100194.97
2019-04-26T06:29:13.609Z,100189.23
2019-04-26T06:31:55.897Z,100191.42
2019-04-26T06:35:02.100Z,100191.88
2019-04-26T06:37:50.684Z,100187.72
2019-04-26T06:40:58.176Z,100190.67
2019-04-26T06:43:34.637Z,100194.86
2019-04-26T06:47:08.059Z,100185.16
2019-04-26T06:50:12.025Z,100199.63
2019-04-26T06:53:14.045Z,100189.30
2019-04-26T06:55:55.306Z,100182.80
2019-04-26T06:59:11.983Z,100190.72
2019-04-26T07:01:59.056Z,100188.64
2019-04-26T07:05:10.149Z,100187.58
2019-04-26T07:08:18.877Z,100188.13
2019-04-26T07:11:32.718Z,100184.50
2019-04-26T07:14:12.740Z,100186.33
2019-04-26T07:17:06.089Z,100181.84
2019-04-26T07:20:04.834Z,100178.17
2019-04-26T07:23:16.528Z,100189.30
2019-04-26T07:26:42.345Z,100182.77
2019-04-26T07:29:40.435Z,100188.61
2019-04-26T07:32:37.637Z,100192.70
2019-04-26T07:35:24.559Z,100190.09
2019-04-26T07:38:46.591Z,100187.56
2019-04-26T07:41:56.822Z,100183.92
2019-04-26T07:44:54.390Z,100188.27
2019-04-26T07:48:15.160Z,100183.05
2019-04-26T07:51:30.672Z,100176.63
2019-04-26T07:54:30.971Z,100178.66
2019-04-26T07:57:41.737Z,100176.98
2019-04-26T08:00:27.690Z,100174.00
2019-04-26T08:03:10.824Z,100175.98
2019-04-26T08:06:09.520Z,100173.84
2019-04-26T08:08:51.124Z,100168.20
2019-04-26T08:11:23.431Z,100165.43
2019-04-26T08:14:08.400Z,100167.69
2019-04-26T08:16:49.386Z,100162.52
2019-04-26T08:19:21.646Z,100163.80
2019-04-26T08:21:52.024Z,100163.80
2019-04-26T08:24:24.552Z,100141.42
2019-04-26T08:27:18.741Z,100155.00
2019-04-26T08:29:43.426Z,100158.58
2019-04-26T08:32:21.572Z,100151.84
2019-04-26T08:34:57.931Z,100147.52
2019-04-26T08:37:37.980Z,100151.66
2019-04-26T08:40:09.021Z,100151.66
2019-04-26T08:42:45.821Z,100145.81
2019-04-26T08:46:01.288Z,100118.23
2019-04-26T08:48:32.772Z,100135.69
2019-04-26T08:51:05.277Z,100135.72
2019-04-26T08:53:35.792Z,100117.97
2019-04-26T08:56:06.862Z,100125.74
2019-04-26T08:58:39.574Z,100131.17
2019-04-26T09:01:33.898Z,100125.50
2019-04-26T09:04:29.074Z,100129.66
2019-04-26T09:07:09.033Z,100125.02
2019-04-26T09:09:40.762Z,100121.18
2019-04-26T09:12:23.035Z,100121.18
2019-04-26T09:14:51.129Z,100117.67
2019-04-26T09:17:20.626Z,100119.42
2019-04-26T09:19:50.936Z,100112.54
2019-04-26T09:22:48.444Z,100115.57
2019-04-26T09:25:39.301Z,100112.54
2019-04-26T09:28:31.151Z,100102.70
2019-04-26T09:31:19.730Z,100100.67
2019-04-26T09:33:56.546Z,100104.39
2019-04-26T09:36:26.227Z,100105.22
2019-04-26T09:38:55.963Z,100100.67
2019-04-26T09:41:26.518Z,100096.80
2019-04-26T09:44:01.835Z,100104.00
2019-04-26T09:46:52.798Z,100103.10
2019-04-26T09:49:33.067Z,100100.24
2019-04-26T09:52:03.520Z,100094.20
2019-04-26T09:54:33.793Z,100098.23
2019-04-26T09:57:03.868Z,100090.50
2019-04-26T09:59:36.256Z,100086.48
2019-04-26T10:02:06.222Z,100095.06
2019-04-26T10:04:36.070Z,100094.52
2019-04-26T10:07:06.706Z,100088.84
2019-04-26T10:09:36.747Z,100085.84
2019-04-26T10:12:14.937Z,100092.37
2019-04-26T10:15:13.002Z,100089.74
2019-04-26T10:17:42.785Z,100087.78
2019-04-26T10:20:13.247Z,100088.43
2019-04-26T10:22:43.192Z,100089.11
2019-04-26T10:25:16.606Z,100080.36
2019-04-26T10:27:45.797Z,100084.80
2019-04-26T10:30:17.174Z,100076.92
2019-04-26T10:32:46.811Z,100069.69
2019-04-26T10:35:17.508Z,100074.43
2019-04-26T10:37:49.296Z,100069.22
2019-04-26T10:40:19.774Z,100056.66
2019-04-26T10:42:49.746Z,100057.03
2019-04-26T10:45:19.988Z,100060.71
2019-04-26T10:47:49.924Z,100048.98
2019-04-26T10:50:19.971Z,100050.34
2019-04-26T10:52:59.428Z,100042.60
2019-04-26T10:55:50.259Z,100041.91
2019-04-26T10:58:55.868Z,100045.61
2019-04-26T11:01:26.619Z,100041.26
2019-04-26T11:03:56.412Z,100033.20
2019-04-26T11:06:27.819Z,100040.75
2019-04-26T11:08:58.540Z,100038.08
2019-04-26T11:11:28.464Z,100035.58
2019-04-26T11:13:58.270Z,100032.69
2019-04-26T11:16:28.103Z,100032.02
2019-04-26T11:19:01.087Z,100027.65
2019-04-26T11:21:31.347Z,100020.42
2019-04-26T11:24:00.981Z,100019.45
2019-04-26T11:26:30.987Z,100017.42
2019-04-26T11:29:02.177Z,100022.44
2019-04-26T11:31:32.412Z,100024.23
2019-04-26T11:34:05.334Z,100012.70
2019-04-26T11:36:33.779Z,100007.64
2019-04-26T11:39:07.466Z,100002.11
2019-04-26T11:41:39.170Z,100004.84
2019-04-26T11:44:08.812Z,99996.14
2019-04-26T11:46:44.691Z,99996.48
2019-04-26T11:49:09.545Z,99998.73
2019-04-26T11:51:39.128Z,99998.41
2019-04-26T11:54:08.825Z,99994.37
2019-04-26T11:56:38.855Z,99989.81
2019-04-26T11:59:08.423Z,99988.61
2019-04-26T12:01:40.440Z,99981.66
2019-04-26T12:04:31.933Z,99977.50
2019-04-26T12:07:10.946Z,99980.17
2019-04-26T12:09:42.751Z,99971.30
2019-04-26T12:12:13.067Z,99976.42
2019-04-26T12:14:44.201Z,99971.59
2019-04-26T12:17:13.854Z,99969.84
2019-04-26T12:19:43.447Z,99971.28
2019-04-26T12:22:13.419Z,99964.27
2019-04-26T12:24:43.527Z,99960.86
2019-04-26T12:27:13.986Z,99957.53
2019-04-26T12:29:47.864Z,99953.59
2019-04-26T12:32:17.271Z,99947.69
2019-04-26T12:34:47.233Z,99948.82
2019-04-26T12:37:20.057Z,99944.67
2019-04-26T12:39:49.328Z,99945.69
2019-04-26T12:42:19.162Z,99940.61
2019-04-26T12:45:07.814Z,99929.30
2019-04-26T12:47:48.692Z,99932.77
2019-04-26T12:50:20.583Z,99923.66
2019-04-26T12:52:51.354Z,99922.08
2019-04-26T12:55:21.519Z,99918.39
2019-04-26T12:57:50.987Z,99914.12
2019-04-26T13:00:28.370Z,99914.91
2019-04-26T13:03:00.347Z,99907.40
2019-04-26T13:05:30.759Z,99909.98
2019-04-26T13:08:00.369Z,99904.20
2019-04-26T13:10:44.872Z,99910.28
2019-04-26T13:13:34.213Z,99902.05
2019-04-26T13:16:26.271Z,99896.34
2019-04-26T13:18:56.272Z,99893.75
2019-04-26T13:21:26.095Z,99891.16
2019-04-26T13:23:56.236Z,99881.11
2019-04-26T13:26:25.786Z,99879.02
2019-04-26T13:28:57.011Z,99881.78
2019-04-26T13:31:31.726Z,99883.03
2019-04-26T13:34:02.941Z,99872.06
2019-04-26T13:36:31.971Z,99873.78
2019-04-26T13:39:01.663Z,99878.11
2019-04-26T13:41:34.984Z,99873.49
2019-04-26T13:44:05.866Z,99873.66
2019-04-26T13:46:57.109Z,99873.19
2019-04-26T13:49:37.829Z,99874.00
2019-04-26T13:52:07.349Z,99869.95
2019-04-26T13:54:38.425Z,99863.02
2019-04-26T13:57:11.273Z,99867.88
2019-04-26T13:59:41.200Z,99857.33
2019-04-26T14:02:12.121Z,99854.90
2019-04-26T14:04:42.644Z,99856.87
2019-04-26T14:07:12.948Z,99857.50
2019-04-26T14:09:42.640Z,99851.23
2019-04-26T14:12:18.865Z,99845.70
2019-04-26T14:14:43.916Z,99850.60
2019-04-26T14:17:13.491Z,99843.52
2019-04-26T14:19:45.289Z,99844.30
2019-04-26T14:22:18.159Z,99841.67
2019-04-26T14:25:02.511Z,99840.30
2019-04-26T14:27:39.948Z,99839.69
2019-04-26T14:30:09.383Z,99833.76
2019-04-26T14:32:39.261Z,99833.83
2019-04-26T14:35:11.526Z,99834.83
2019-04-26T14:37:41.094Z,99827.27
2019-04-26T14:40:17.253Z,99822.20
2019-04-26T14:42:47.292Z,99821.30
2019-04-26T14:45:24.154Z,99824.03
2019-04-26T14:47:53.962Z,99829.18
2019-04-26T14:50:24.458Z,99816.26
2019-04-26T14:52:54.480Z,99816.09
2019-04-26T14:55:24.499Z,99809.56
2019-04-26T14:57:55.001Z,99815.50
2019-04-26T15:00:29.847Z,99808.51
2019-04-26T15:03:05.271Z,99812.90
2019-04-26T15:06:05.520Z,99809.70
2019-04-26T15:08:35.814Z,99806.23
2019-04-26T15:11:06.317Z,99811.56
2019-04-26T15:13:40.367Z,99815.16
2019-04-26T15:16:10.411Z,99813.21
2019-04-26T15:18:40.327Z,99820.95
2019-04-26T15:21:13.276Z,99818.95
2019-04-26T15:23:43.109Z,99815.57
2019-04-26T15:26:13.199Z,99814.73
2019-04-26T15:28:43.665Z,99815.48
2019-04-26T15:31:17.062Z,99808.23
2019-04-26T15:33:48.786Z,99811.22
2019-04-26T15:36:17.748Z,99803.30
2019-04-26T15:38:50.147Z,99801.52
2019-04-26T15:41:37.748Z,99804.63
2019-04-26T15:44:20.313Z,99803.39
2019-04-26T15:47:06.880Z,99808.55
2019-04-26T15:50:09.861Z,99803.82
2019-04-26T15:52:36.025Z,99806.95
2019-04-26T15:55:06.222Z,99808.09
2019-04-26T15:57:38.116Z,99804.02
2019-04-26T16:00:07.936Z,99805.14
2019-04-26T16:02:38.310Z,99800.00
2019-04-26T16:05:08.167Z,99803.16
2019-04-26T16:07:39.629Z,99807.66
2019-04-26T16:10:09.758Z,99803.91
2019-04-26T16:12:39.762Z,99804.28
2019-04-26T16:15:11.489Z,99802.95
2019-04-26T16:17:41.411Z,99799.90
2019-04-26T16:20:11.882Z,99802.95
2019-04-26T16:22:43.217Z,99797.41
2019-04-26T16:25:13.286Z,99796.73
2019-04-26T16:27:43.207Z,99800.30
2019-04-26T16:30:32.619Z,99804.95
2019-04-26T16:33:09.119Z,99804.31
2019-04-26T16:35:52.486Z,99797.11
2019-04-26T16:38:33.190Z,99798.59
2019-04-26T16:41:03.470Z,99803.31
2019-04-26T16:43:40.339Z,99808.48
2019-04-26T16:46:06.975Z,99810.64
2019-04-26T16:48:38.966Z,99819.19
2019-04-26T16:51:09.295Z,99821.27
2019-04-26T16:54:07.215Z,99822.72
2019-04-26T16:56:59.104Z,99826.39
2019-04-26T16:59:33.678Z,99824.72
2019-04-26T17:02:04.096Z,99824.94
2019-04-26T17:04:36.932Z,99826.15
2019-04-26T17:07:10.204Z,99823.29
2019-04-26T17:09:57.090Z,99819.67
2019-04-26T17:12:17.703Z,99825.39
2019-04-26T17:14:52.531Z,99814.98
2019-04-26T17:17:23.370Z,99813.66
2019-04-26T17:19:53.196Z,99805.59
2019-04-26T17:22:44.359Z,99804.54
2019-04-26T17:25:23.721Z,99803.55
2019-04-26T17:27:48.323Z,99800.68
2019-04-26T17:30:26.445Z,99808.50
2019-04-26T17:32:56.960Z,99808.45
2019-04-26T17:35:28.816Z,99803.05
2019-04-26T17:41:17.601Z,99810.53
2019-04-26T17:43:56.007Z,99807.01
2019-04-26T17:46:27.087Z,99806.13
2019-04-26T17:49:00.406Z,99806.62
2019-04-26T17:51:32.572Z,99812.95
2019-04-26T17:54:26.497Z,99802.75
2019-04-26T17:56:45.650Z,99800.94
2019-04-26T17:59:33.339Z,99802.75
2019-04-26T18:02:00.727Z,99802.13
2019-04-26T18:04:34.554Z,99799.80
2019-04-26T18:07:03.751Z,99802.33
2019-04-26T18:09:41.350Z,99806.23
2019-04-26T18:12:03.513Z,99803.96
2019-04-26T18:14:33.768Z,99792.89
2019-04-26T18:17:23.143Z,99787.73
2019-04-26T18:20:06.534Z,99778.42
2019-04-26T18:22:43.216Z,99777.88
2019-04-26T18:25:19.660Z,99787.59
2019-04-26T18:27:50.589Z,99784.24
2019-04-26T18:30:21.117Z,99787.77
2019-04-26T18:32:55.158Z,99785.58
2019-04-26T18:35:25.572Z,99786.43
2019-04-26T18:37:56.088Z,99786.12
2019-04-26T18:40:35.427Z,99785.13
2019-04-26T18:43:03.410Z,99776.91
2019-04-26T18:45:35.557Z,99773.56
2019-04-26T18:48:05.562Z,99777.17
2019-04-26T18:50:36.674Z,99780.27
2019-04-26T18:53:40.523Z,99778.67
2019-04-26T18:56:12.542Z,99775.73
2019-04-26T18:58:43.660Z,99778.28
2019-04-26T19:01:15.136Z,99771.97
2019-04-26T19:03:44.874Z,99773.96
2019-04-26T19:06:27.150Z,99774.79
2019-04-26T19:08:50.091Z,99774.38
2019-04-26T19:11:19.065Z,99770.11
2019-04-26T19:14:13.070Z,99767.58
2019-04-26T19:17:08.137Z,99764.47
2019-04-26T19:19:55.792Z,99769.31
2019-04-26T19:22:26.293Z,99772.75
2019-04-26T19:24:57.671Z,99770.20
2019-04-26T19:27:28.602Z,99771.26
2019-04-26T19:30:04.322Z,99774.70
2019-04-26T19:32:35.188Z,99765.30
2019-04-26T19:35:07.114Z,99765.87
2019-04-26T19:37:37.097Z,99771.25
2019-04-26T19:40:09.025Z,99765.70
2019-04-26T19:42:38.740Z,99772.77
2019-04-26T19:45:18.957Z,99764.77
2019-04-26T19:48:07.498Z,99767.67
2019-04-26T19:50:48.670Z,99769.00
2019-04-26T19:53:54.255Z,99769.34
2019-04-26T19:56:46.872Z,99763.92
2019-04-26T19:59:16.895Z,99763.20
2019-04-26T20:01:49.362Z,99764.53
2019-04-26T20:04:24.807Z,99762.59
2019-04-26T20:06:55.265Z,99764.64
2019-04-26T20:09:27.669Z,99761.34
2019-04-26T20:11:59.344Z,99757.93
2019-04-26T20:14:39.843Z,99765.28
2019-04-26T20:17:01.745Z,99761.36
2019-04-26T20:19:37.217Z,99755.29
2019-04-26T20:22:06.200Z,99755.77
2019-04-26T20:24:37.661Z,99752.25
2019-04-26T20:27:07.435Z,99747.43
2019-04-26T20:29:40.736Z,99745.89
2019-04-26T20:32:24.917Z,99733.53
2019-04-26T20:35:19.866Z,99734.86
2019-04-26T20:37:47.997Z,99737.18
2019-04-26T20:40:22.526Z,99730.18
2019-04-26T20:42:51.212Z,99734.44
2019-04-26T20:45:22.363Z,99733.38
2019-04-26T20:47:55.606Z,99735.48
2019-04-26T20:50:28.566Z,99739.82
2019-04-26T20:53:01.195Z,99733.91
2019-04-26T20:55:34.651Z,99728.72
2019-04-26T20:58:08.309Z,99738.68
2019-04-26T21:00:37.643Z,99735.77
2019-04-26T21:03:21.114Z,99736.63
2019-04-26T21:05:58.864Z,99737.61
2019-04-26T21:08:31.678Z,99730.66
2019-04-26T21:11:08.944Z,99731.14
2019-04-26T21:13:47.491Z,99742.13
2019-04-26T21:16:34.836Z,99736.89
2019-04-26T21:19:08.378Z,99733.11
2019-04-26T21:21:42.014Z,99736.84
2019-04-26T21:24:19.977Z,99725.98
2019-04-26T21:27:11.954Z,99733.67
2019-04-26T21:30:01.208Z,99728.69
2019-04-26T21:32:47.463Z,99725.31
2019-04-26T21:35:24.519Z,99725.20
2019-04-26T21:37:59.872Z,99726.31
2019-04-26T21:40:33.593Z,99723.23
2019-04-26T21:43:03.748Z,99711.66
2019-04-26T21:45:34.028Z,99711.36
2019-04-26T21:48:06.840Z,99712.53
2019-04-26T21:50:39.044Z,99707.84
2019-04-26T21:53:08.711Z,99702.58
2019-04-26T21:55:38.920Z,99702.33
2019-04-26T21:58:14.039Z,99699.84
2019-04-26T22:01:06.175Z,99694.64
2019-04-26T22:03:38.606Z,99690.48
2019-04-26T22:06:08.159Z,99686.91
2019-04-26T22:08:41.188Z,99687.78
2019-04-26T22:11:13.924Z,99685.53
2019-04-26T22:13:51.159Z,99690.89
2019-04-26T22:16:37.236Z,99683.30
2019-04-26T22:19:27.889Z,99682.95
2019-04-26T22:22:15.392Z,99680.42
2019-04-26T22:24:46.377Z,99683.42
2019-04-26T22:27:25.279Z,99679.88
2019-04-26T22:29:55.687Z,99676.23
2019-04-26T22:32:25.879Z,99667.27
2019-04-26T22:34:56.139Z,99667.95
2019-04-26T22:37:29.862Z,99671.81
2019-04-26T22:39:58.269Z,99667.11
2019-04-26T22:42:36.645Z,99660.37
2019-04-26T22:45:21.020Z,99660.37
2019-04-26T22:48:19.135Z,99658.44
2019-04-26T22:50:45.512Z,99661.52
2019-04-26T22:53:15.945Z,99654.28
2019-04-26T22:55:45.620Z,99651.41
2019-04-26T22:58:15.382Z,99645.17
2019-04-26T23:00:48.172Z,99641.22
2019-04-26T23:03:19.601Z,99641.13
2019-04-26T23:05:49.419Z,99639.08
2019-04-26T23:08:19.711Z,99640.53
2019-04-26T23:10:52.995Z,99636.67
2019-04-26T23:13:51.349Z,99629.21
2019-04-26T23:16:40.421Z,99634.97
2019-04-26T23:19:19.214Z,99630.72
2019-04-26T23:21:55.566Z,99629.27
2019-04-26T23:24:23.783Z,99633.13
2019-04-26T23:26:54.083Z,99636.13
2019-04-26T23:29:23.984Z,99631.80
2019-04-26T23:31:55.545Z,99628.03
2019-04-26T23:34:25.438Z,99622.58
2019-04-26T23:36:55.396Z,99626.91
2019-04-26T23:39:25.403Z,99624.86
2019-04-26T23:41:55.675Z,99622.97
2019-04-26T23:44:25.947Z,99618.98
2019-04-26T23:47:01.304Z,99615.76
2019-04-26T23:49:27.459Z,99607.70
2019-04-26T23:51:57.305Z,99617.34
2019-04-26T23:54:28.102Z,99617.60
2019-04-26T23:56:59.001Z,99607.35
2019-04-26T23:59:31.597Z,99614.16
